createdAt,value
2018-09-08T01:30:25.523Z,74.39
2018-09-08T01:32:56.693Z,73.86
2018-09-08T01:35:25.743Z,74.27
2018-09-08T01:37:54.622Z,73.90
2018-09-08T01:40:23.425Z,74.50
2018-09-08T01:42:51.839Z,75.06
2018-09-08T01:45:20.503Z,75.08
2018-09-08T01:47:49.038Z,75.25
2018-09-08T01:50:18.959Z,75.21
2018-09-08T01:52:49.249Z,74.76
2018-09-08T01:55:17.841Z,74.94
2018-09-08T01:57:46.309Z,75.85
2018-09-08T02:00:14.964Z,75.67
2018-09-08T02:02:43.727Z,75.75
2018-09-08T02:05:12.122Z,75.97
2018-09-08T02:07:41.341Z,76.33
2018-09-08T02:10:09.886Z,76.26
2018-09-08T02:12:38.721Z,76.00
2018-09-08T02:24:01.544Z,75.38
2018-09-08T03:18:29.524Z,76.60
2018-09-08T04:21:16.189Z,68.97
2018-09-08T05:24:08.317Z,65.79
2018-09-08T07:24:46.493Z,61.05
2018-09-08T08:24:38.055Z,57.10
2018-09-08T09:12:49.572Z,50.80
2018-09-08T09:24:27.770Z,49.33
2018-09-08T10:12:28.917Z,48.25
2018-09-08T10:17:51.234Z,46.51
2018-09-08T10:28:13.221Z,46.39
2018-09-08T10:30:42.347Z,47.00
2018-09-08T10:33:10.872Z,46.55
2018-09-08T10:35:40.265Z,46.15
2018-09-08T10:38:09.481Z,46.83
2018-09-08T10:40:37.950Z,48.41
2018-09-08T10:43:08.141Z,43.13
2018-09-08T10:45:37.279Z,43.22
2018-09-08T10:48:05.780Z,43.89
2018-09-08T10:50:34.210Z,44.20
2018-09-08T10:53:02.664Z,44.46
2018-09-08T10:55:31.091Z,45.86
2018-09-08T10:58:10.590Z,47.85
2018-09-08T11:00:38.938Z,47.57
2018-09-08T11:03:07.616Z,47.99
2018-09-08T11:05:37.388Z,48.81
2018-09-08T11:08:05.756Z,48.38
2018-09-08T11:10:34.239Z,47.74
2018-09-08T11:13:03.044Z,48.14
2018-09-08T11:15:33.763Z,48.62
2018-09-08T12:13:20.025Z,44.21
2018-09-08T12:15:48.893Z,44.78
2018-09-08T14:26:42.356Z,46.49
2018-09-08T14:29:12.620Z,46.87
2018-09-08T14:31:43.554Z,45.39
2018-09-08T14:34:12.109Z,46.14
2018-09-08T14:36:40.685Z,45.92
2018-09-08T14:39:10.030Z,44.85
2018-09-08T14:41:39.045Z,44.78
2018-09-08T14:44:07.826Z,43.55
2018-09-08T14:46:36.715Z,43.66
2018-09-08T14:49:05.617Z,43.37
2018-09-08T14:51:34.580Z,41.22
2018-09-08T14:54:03.121Z,39.98
2018-09-08T14:56:32.506Z,40.01
2018-09-08T14:59:02.560Z,40.56
2018-09-08T15:01:31.099Z,39.44
2018-09-08T15:03:59.612Z,38.18
2018-09-08T15:06:28.186Z,38.20
2018-09-08T15:08:56.724Z,39.72
2018-09-08T15:11:25.538Z,39.71
2018-09-08T15:22:36.501Z,37.89
2018-09-08T15:25:06.544Z,39.43
2018-09-08T15:27:37.498Z,38.89
2018-09-08T15:30:07.699Z,39.48
2018-09-08T15:35:40.245Z,40.85
2018-09-08T15:38:10.111Z,41.45
2018-09-08T15:40:42.371Z,38.15
2018-09-08T15:43:13.081Z,39.68
2018-09-08T15:45:41.636Z,39.60
2018-09-08T15:48:12.771Z,39.88
2018-09-08T16:04:26.197Z,38.29
2018-09-08T17:16:00.017Z,43.28
2018-09-08T17:19:08.811Z,42.69
2018-09-08T17:38:41.116Z,45.58
2018-09-08T17:41:09.476Z,44.93
2018-09-08T17:43:37.796Z,45.84
2018-09-08T17:46:06.205Z,46.14
2018-09-08T21:19:58.548Z,57.54
2018-09-08T23:18:06.019Z,60.07
